createdAt,value
2022-10-21T00:02:23.899Z,67.89
2022-10-21T00:04:50.481Z,67.64
2022-10-21T00:07:17.100Z,67.75
2022-10-21T00:09:43.808Z,68.02
2022-10-21T00:12:10.374Z,68.48
2022-10-21T00:14:37.029Z,68.14
2022-10-21T00:17:03.654Z,68.07
2022-10-21T00:19:30.290Z,68.26
2022-10-21T00:21:56.855Z,67.83
2022-10-21T00:24:23.443Z,67.88
2022-10-21T00:26:50.763Z,67.93
2022-10-21T00:29:17.394Z,67.58
2022-10-21T00:31:44.075Z,67.99
2022-10-21T00:34:10.698Z,68.27
2022-10-21T00:36:37.314Z,67.92
2022-10-21T00:39:03.996Z,68.23
2022-10-21T00:41:30.828Z,68.23
2022-10-21T00:44:05.822Z,68.67
2022-10-21T00:46:40.302Z,68.68
2022-10-21T00:49:34.410Z,68.87
2022-10-21T00:52:01.214Z,69.25
2022-10-21T00:54:27.921Z,69.17
2022-10-21T00:56:54.856Z,69.42
2022-10-21T00:59:22.824Z,69.31
2022-10-21T01:01:49.447Z,69.06
2022-10-21T01:04:16.145Z,69.28
2022-10-21T01:06:42.821Z,68.82
2022-10-21T01:09:09.509Z,69.20
2022-10-21T01:11:43.461Z,68.91
2022-10-21T01:14:16.524Z,69.21
2022-10-21T01:17:43.599Z,68.78
2022-10-21T01:24:12.402Z,69.48
2022-10-21T01:27:05.759Z,69.03
2022-10-21T01:29:49.202Z,69.16
2022-10-21T01:32:57.079Z,69.44
2022-10-21T01:35:56.935Z,69.45
2022-10-21T01:38:23.407Z,69.12
2022-10-21T01:40:58.950Z,69.39
2022-10-21T01:43:57.882Z,68.76
2022-10-21T01:46:39.249Z,68.51
2022-10-21T01:49:13.935Z,68.68
2022-10-21T01:51:40.556Z,68.56
2022-10-21T01:54:10.032Z,68.72
2022-10-21T01:56:36.722Z,68.39
2022-10-21T01:59:03.365Z,68.63
2022-10-21T02:01:30.102Z,68.64
2022-10-21T02:03:58.093Z,68.42
2022-10-21T02:06:25.383Z,68.85
2022-10-21T02:08:52.495Z,68.62
2022-10-21T02:11:19.335Z,68.93
2022-10-21T02:13:51.600Z,68.57
2022-10-21T02:16:18.709Z,68.57
2022-10-21T02:18:45.364Z,68.58
2022-10-21T02:21:19.046Z,68.49
2022-10-21T02:23:57.647Z,68.66
2022-10-21T02:26:25.834Z,68.79
2022-10-21T02:28:53.053Z,68.45
2022-10-21T02:31:33.750Z,69.04
2022-10-21T02:34:15.862Z,68.69
2022-10-21T02:37:09.369Z,68.95
2022-10-21T02:39:43.199Z,68.75
2022-10-21T02:42:11.012Z,68.19
2022-10-21T02:44:37.736Z,68.22
2022-10-21T02:47:04.361Z,68.79
2022-10-21T02:49:31.113Z,68.85
2022-10-21T02:51:57.854Z,69.19
2022-10-21T02:54:24.602Z,68.88
2022-10-21T02:56:51.204Z,69.24
2022-10-21T02:59:17.762Z,69.75
2022-10-21T03:01:44.378Z,69.82
2022-10-21T03:04:10.984Z,69.65
2022-10-21T03:06:37.570Z,69.77
2022-10-21T03:09:05.521Z,69.90
2022-10-21T03:11:32.193Z,69.41
2022-10-21T03:14:01.831Z,69.53
2022-10-21T03:16:59.352Z,69.37
2022-10-21T03:19:25.935Z,69.47
2022-10-21T03:21:52.569Z,69.55
2022-10-21T03:24:27.909Z,69.41
2022-10-21T03:26:55.305Z,69.17
2022-10-21T03:29:22.205Z,69.48
2022-10-21T03:31:48.920Z,69.46
2022-10-21T03:34:15.617Z,69.16
2022-10-21T03:36:42.259Z,69.45
2022-10-21T03:39:10.133Z,69.17
2022-10-21T03:41:36.740Z,69.97
2022-10-21T03:44:03.419Z,68.96
2022-10-21T03:46:30.017Z,69.01
2022-10-21T03:49:01.003Z,68.97
2022-10-21T03:51:31.268Z,69.49
2022-10-21T03:53:58.265Z,68.58
2022-10-21T03:56:24.871Z,68.81
2022-10-21T03:58:54.004Z,68.90
2022-10-21T04:01:24.364Z,68.78
2022-10-21T04:03:51.057Z,68.93
2022-10-21T04:06:17.756Z,68.66
2022-10-21T04:08:44.451Z,68.16
2022-10-21T04:11:11.123Z,68.01
2022-10-21T04:13:37.743Z,67.81
2022-10-21T04:16:05.781Z,67.80
2022-10-21T04:18:32.379Z,67.28
2022-10-21T04:20:58.996Z,67.54
2022-10-21T04:23:25.814Z,67.75
2022-10-21T04:25:52.403Z,67.41
2022-10-21T04:28:18.975Z,67.67
2022-10-21T04:30:45.535Z,67.96
2022-10-21T04:33:12.184Z,67.83
2022-10-21T04:35:39.610Z,67.82
2022-10-21T04:38:06.268Z,68.03
2022-10-21T04:40:32.997Z,68.15
2022-10-21T04:42:59.623Z,68.17
2022-10-21T04:46:03.082Z,68.59
2022-10-21T04:48:29.746Z,67.87
2022-10-21T04:50:56.478Z,68.52
2022-10-21T04:53:23.363Z,67.62
2022-10-21T04:55:53.407Z,67.69
2022-10-21T04:58:22.013Z,67.67
2022-10-21T05:00:50.097Z,67.69
2022-10-21T05:03:16.781Z,67.52
2022-10-21T05:05:43.352Z,67.51
2022-10-21T05:08:11.631Z,67.01
2022-10-21T05:10:38.563Z,67.50
2022-10-21T05:13:06.187Z,66.85
2022-10-21T05:15:33.178Z,66.63
2022-10-21T05:17:59.823Z,67.05
2022-10-21T05:20:26.413Z,66.10
2022-10-21T05:22:53.618Z,66.80
2022-10-21T05:25:20.592Z,66.86
2022-10-21T05:27:47.186Z,66.16
2022-10-21T05:30:14.116Z,66.09
2022-10-21T05:32:41.182Z,66.38
2022-10-21T05:35:07.981Z,66.91
2022-10-21T05:37:34.610Z,67.13
2022-10-21T05:40:01.238Z,66.90
2022-10-21T05:42:27.879Z,65.21
2022-10-21T05:44:54.851Z,66.02
2022-10-21T05:47:21.551Z,65.89
2022-10-21T05:49:48.200Z,65.92
2022-10-21T05:52:14.837Z,65.84
2022-10-21T05:54:41.428Z,65.11
2022-10-21T05:57:07.998Z,65.53
2022-10-21T05:59:34.612Z,65.23
2022-10-21T06:02:01.836Z,65.72
2022-10-21T06:04:28.420Z,65.71
2022-10-21T06:06:55.141Z,66.58
2022-10-21T06:09:21.815Z,67.06
2022-10-21T06:11:48.411Z,65.90
2022-10-21T06:14:15.095Z,65.09
2022-10-21T06:16:41.797Z,65.65
2022-10-21T06:19:08.391Z,66.09
2022-10-21T06:21:35.057Z,65.66
2022-10-21T06:24:01.795Z,65.04
2022-10-21T06:26:30.943Z,63.98
2022-10-21T06:28:59.988Z,63.60
2022-10-21T06:31:26.620Z,63.46
2022-10-21T06:33:53.226Z,62.18
2022-10-21T06:36:19.853Z,62.11
2022-10-21T06:38:46.546Z,61.72
2022-10-21T06:41:13.792Z,60.53
2022-10-21T06:43:41.268Z,60.39
2022-10-21T06:46:09.927Z,60.43
2022-10-21T06:48:36.595Z,60.23
2022-10-21T06:51:08.988Z,60.17
2022-10-21T06:53:38.969Z,59.87
2022-10-21T06:56:13.724Z,60.24
2022-10-21T06:58:43.467Z,58.83
2022-10-21T07:01:21.392Z,59.67
2022-10-21T07:03:57.818Z,59.56
2022-10-21T07:06:24.638Z,58.52
2022-10-21T07:08:57.823Z,59.38
2022-10-21T07:11:25.380Z,59.44
2022-10-21T07:13:51.992Z,58.88
2022-10-21T07:16:24.981Z,60.18
2022-10-21T07:18:51.710Z,58.64
2022-10-21T07:21:19.159Z,57.67
2022-10-21T07:23:46.138Z,57.23
2022-10-21T07:26:12.881Z,56.88
2022-10-21T07:28:40.324Z,54.82
2022-10-21T07:31:06.894Z,54.73
2022-10-21T07:33:34.654Z,52.60
2022-10-21T07:36:09.382Z,51.07
2022-10-21T07:38:36.206Z,49.95
2022-10-21T07:41:02.911Z,49.87
2022-10-21T07:43:29.577Z,50.57
2022-10-21T07:45:59.066Z,48.83
2022-10-21T07:48:28.300Z,48.64
2022-10-21T07:50:55.020Z,48.17
2022-10-21T07:53:25.935Z,47.02
2022-10-21T07:56:01.808Z,46.51
2022-10-21T07:58:29.368Z,44.21
2022-10-21T08:00:59.070Z,42.88
2022-10-21T08:03:25.745Z,41.95
2022-10-21T08:05:52.632Z,42.01
2022-10-21T08:08:21.822Z,42.26
2022-10-21T08:13:17.265Z,43.80
2022-10-21T08:15:48.781Z,44.02
2022-10-21T08:18:15.528Z,45.65
2022-10-21T08:20:43.545Z,46.30
2022-10-21T08:23:11.302Z,47.71
2022-10-21T08:25:37.936Z,48.63
2022-10-21T08:28:05.307Z,48.06
2022-10-21T08:30:32.259Z,48.95
2022-10-21T08:32:59.205Z,48.95
2022-10-21T08:35:26.760Z,49.76
2022-10-21T08:37:53.876Z,50.32
2022-10-21T08:40:20.538Z,50.56
2022-10-21T08:42:47.216Z,50.56
2022-10-21T08:45:34.638Z,51.12
2022-10-21T08:48:03.559Z,50.89
2022-10-21T08:50:33.665Z,52.20
2022-10-21T08:53:27.542Z,51.64
2022-10-21T08:55:58.857Z,52.23
2022-10-21T08:58:25.469Z,51.92
2022-10-21T09:00:58.933Z,52.30
2022-10-21T09:03:25.518Z,53.15
2022-10-21T09:06:10.399Z,52.07
2022-10-21T09:08:52.521Z,52.68
2022-10-21T09:11:45.415Z,51.94
2022-10-21T09:14:43.114Z,52.06
2022-10-21T09:17:21.408Z,52.48
2022-10-21T09:20:07.788Z,52.56
2022-10-21T09:23:22.461Z,53.00
2022-10-21T09:25:57.017Z,52.51
2022-10-21T09:28:23.661Z,52.82
2022-10-21T09:30:50.308Z,54.03
2022-10-21T09:33:18.815Z,53.68
2022-10-21T09:35:51.835Z,52.86
2022-10-21T09:38:33.843Z,53.49
2022-10-21T09:41:03.518Z,52.35
2022-10-21T09:43:30.455Z,52.77
2022-10-21T09:45:57.375Z,52.73
2022-10-21T09:48:33.794Z,52.01
2022-10-21T09:51:06.970Z,52.03
2022-10-21T09:53:34.688Z,52.15
2022-10-21T09:56:03.915Z,51.56
2022-10-21T09:58:36.683Z,51.48
2022-10-21T10:01:03.631Z,49.83
2022-10-21T10:03:35.204Z,49.27
2022-10-21T10:06:01.992Z,50.29
2022-10-21T10:08:41.329Z,50.15
2022-10-21T10:11:13.659Z,50.19
2022-10-21T10:13:48.021Z,50.50
2022-10-21T10:16:14.774Z,49.81
2022-10-21T10:18:42.205Z,49.23
2022-10-21T10:21:16.043Z,49.50
2022-10-21T10:23:50.163Z,49.30
2022-10-21T10:26:28.348Z,49.20
2022-10-21T10:29:08.214Z,48.58
2022-10-21T10:31:34.905Z,48.33
2022-10-21T10:34:19.690Z,47.16
2022-10-21T10:36:46.666Z,48.43
2022-10-21T10:39:19.738Z,48.70
2022-10-21T10:41:47.826Z,48.02
2022-10-21T10:44:41.208Z,47.95
2022-10-21T10:47:09.445Z,48.52
2022-10-21T10:49:38.448Z,48.21
2022-10-21T10:52:11.103Z,48.94
2022-10-21T10:54:38.678Z,50.22
2022-10-21T10:57:20.933Z,51.32
2022-10-21T10:59:51.507Z,49.72
2022-10-21T11:02:34.340Z,49.34
2022-10-21T11:05:00.841Z,50.92
2022-10-21T11:07:33.171Z,49.34
2022-10-21T11:10:08.217Z,49.55
2022-10-21T11:12:34.844Z,50.19
2022-10-21T11:15:01.524Z,50.42
2022-10-21T11:17:36.899Z,49.57
2022-10-21T11:20:07.121Z,48.88
2022-10-21T11:22:56.507Z,48.80
2022-10-21T11:25:26.542Z,47.29
2022-10-21T11:28:09.161Z,47.88
2022-10-21T11:30:44.625Z,48.85
2022-10-21T11:33:31.013Z,47.81
2022-10-21T11:36:20.201Z,48.38
2022-10-21T11:39:21.352Z,48.56
2022-10-21T11:41:49.682Z,49.43
2022-10-21T11:44:38.528Z,47.77
2022-10-21T11:47:20.039Z,49.63
2022-10-21T11:49:52.832Z,47.99
2022-10-21T11:52:44.505Z,49.15
2022-10-21T11:55:35.460Z,50.38
2022-10-21T11:58:23.357Z,48.60
2022-10-21T12:00:59.015Z,48.31
2022-10-21T12:03:37.036Z,47.83
2022-10-21T12:06:12.795Z,48.44
2022-10-21T12:08:51.522Z,48.88
2022-10-21T12:11:29.548Z,48.38
2022-10-21T12:14:08.473Z,49.52
2022-10-21T12:16:35.053Z,49.33
2022-10-21T12:19:05.676Z,50.57
2022-10-21T12:21:35.402Z,50.48
2022-10-21T12:24:10.937Z,49.35
2022-10-21T12:26:43.183Z,49.62
2022-10-21T12:29:54.379Z,50.16
2022-10-21T12:32:51.134Z,49.80
2022-10-21T12:35:28.825Z,51.01
2022-10-21T12:37:55.347Z,49.98
2022-10-21T12:40:27.727Z,50.71
2022-10-21T12:42:59.636Z,50.01
2022-10-21T12:45:34.183Z,50.46
2022-10-21T12:48:00.826Z,49.78
2022-10-21T12:50:31.379Z,49.81
2022-10-21T12:53:12.491Z,49.82
2022-10-21T12:55:42.091Z,50.53
2022-10-21T12:58:34.221Z,50.41
2022-10-21T13:01:02.371Z,50.28
2022-10-21T13:03:52.180Z,49.47
2022-10-21T13:06:41.524Z,50.07
2022-10-21T13:09:42.326Z,50.38
2022-10-21T13:12:08.778Z,51.38
2022-10-21T13:14:47.441Z,50.72
2022-10-21T13:17:23.238Z,51.09
2022-10-21T13:19:50.583Z,51.46
2022-10-21T13:22:48.417Z,51.08
2022-10-21T13:25:29.032Z,51.07
2022-10-21T13:28:14.533Z,50.97
2022-10-21T13:30:59.654Z,50.82
2022-10-21T13:33:27.128Z,50.42
2022-10-21T13:35:55.943Z,50.92
2022-10-21T13:38:22.498Z,50.86
2022-10-21T13:40:51.247Z,50.42
2022-10-21T13:43:21.985Z,50.55
2022-10-21T13:45:50.036Z,50.76
2022-10-21T13:48:20.533Z,51.36
2022-10-21T13:50:48.976Z,50.99
2022-10-21T13:53:15.574Z,51.04
2022-10-21T13:55:42.168Z,50.12
2022-10-21T13:58:17.940Z,50.70
2022-10-21T14:00:44.631Z,50.76
2022-10-21T14:03:17.575Z,51.09
2022-10-21T14:05:51.707Z,50.38
2022-10-21T14:08:33.369Z,50.16
2022-10-21T14:11:01.587Z,50.83
2022-10-21T14:13:31.490Z,50.82
2022-10-21T14:15:58.393Z,50.62
2022-10-21T14:18:36.472Z,50.77
2022-10-21T14:21:04.443Z,50.64
2022-10-21T14:23:31.076Z,49.96
2022-10-21T14:26:04.739Z,50.18
2022-10-21T14:28:32.388Z,51.09
2022-10-21T14:31:01.255Z,50.86
2022-10-21T14:33:29.845Z,50.33
2022-10-21T14:36:10.771Z,49.93
2022-10-21T14:38:52.104Z,50.84
2022-10-21T14:41:38.366Z,51.27
2022-10-21T14:44:26.532Z,51.40
2022-10-21T14:46:56.039Z,51.76
2022-10-21T14:49:33.450Z,52.47
2022-10-21T14:52:07.631Z,51.80
2022-10-21T14:54:43.084Z,52.17
2022-10-21T14:57:41.571Z,52.41
2022-10-21T15:00:18.130Z,52.43
2022-10-21T15:02:44.770Z,52.78
2022-10-21T15:05:43.008Z,52.39
2022-10-21T15:08:19.412Z,52.84
2022-10-21T15:10:46.956Z,52.59
2022-10-21T15:13:17.545Z,53.11
2022-10-21T15:15:53.300Z,52.87
2022-10-21T15:18:24.874Z,52.65
2022-10-21T15:20:52.056Z,53.08
2022-10-21T15:23:20.193Z,53.03
2022-10-21T15:25:47.096Z,53.43
2022-10-21T15:28:16.505Z,52.99
2022-10-21T15:30:45.053Z,52.62
2022-10-21T15:33:11.994Z,52.16
2022-10-21T15:35:38.636Z,52.44
2022-10-21T15:38:05.229Z,52.94
2022-10-21T15:40:33.992Z,53.40
2022-10-21T15:43:00.757Z,52.81
2022-10-21T15:45:27.335Z,52.83
2022-10-21T15:47:54.883Z,53.12
2022-10-21T15:50:23.521Z,53.16
2022-10-21T15:52:50.209Z,53.61
2022-10-21T15:55:16.927Z,53.00
2022-10-21T15:57:44.632Z,53.06
2022-10-21T16:00:21.866Z,53.29
2022-10-21T16:02:49.202Z,53.11
2022-10-21T16:05:16.108Z,53.49
2022-10-21T16:07:43.025Z,53.24
2022-10-21T16:10:27.161Z,53.20
2022-10-21T16:12:54.456Z,52.93
2022-10-21T16:15:21.230Z,53.20
2022-10-21T16:17:50.085Z,53.57
2022-10-21T16:20:24.824Z,53.65
2022-10-21T16:22:51.481Z,53.81
2022-10-21T16:25:18.105Z,54.26
2022-10-21T16:27:55.676Z,54.46
2022-10-21T16:30:30.234Z,54.19
2022-10-21T16:32:57.402Z,54.26
2022-10-21T16:35:24.071Z,54.40
2022-10-21T16:37:50.757Z,54.29
2022-10-21T16:40:19.197Z,55.20
2022-10-21T16:42:45.783Z,54.90
2022-10-21T16:45:13.472Z,55.12
2022-10-21T16:47:42.748Z,54.95
2022-10-21T16:50:11.722Z,54.57
2022-10-21T16:52:38.739Z,55.15
2022-10-21T16:55:07.074Z,55.13
2022-10-21T16:57:33.658Z,54.59
2022-10-21T17:00:00.311Z,54.42
2022-10-21T17:02:26.912Z,54.70
2022-10-21T17:04:53.552Z,54.68
2022-10-21T17:07:20.209Z,54.88
2022-10-21T17:09:46.773Z,54.75
2022-10-21T17:12:13.353Z,54.84
2022-10-21T17:14:40.130Z,54.81
2022-10-21T17:17:06.734Z,54.60
2022-10-21T17:19:33.327Z,54.13
2022-10-21T17:21:59.990Z,54.62
2022-10-21T17:24:28.114Z,54.62
2022-10-21T17:26:56.380Z,54.87
2022-10-21T17:29:23.364Z,54.60
2022-10-21T17:31:50.041Z,55.19
2022-10-21T17:34:27.868Z,54.81
2022-10-21T17:36:54.615Z,54.94
2022-10-21T17:39:21.436Z,55.30
2022-10-21T17:44:19.804Z,55.59
2022-10-21T17:46:47.766Z,56.12
2022-10-21T17:49:14.464Z,56.98
2022-10-21T17:51:41.131Z,56.66
2022-10-21T17:54:07.839Z,57.14
2022-10-21T17:56:34.471Z,57.47
2022-10-21T17:59:01.702Z,57.20
2022-10-21T18:01:28.389Z,57.54
2022-10-21T18:03:57.200Z,57.65
2022-10-21T18:06:23.878Z,58.87
2022-10-21T18:08:50.576Z,57.95
2022-10-21T18:11:18.591Z,58.06
2022-10-21T18:13:46.853Z,58.08
2022-10-21T18:16:20.919Z,58.92
2022-10-21T18:18:47.862Z,59.54
2022-10-21T18:21:19.897Z,58.76
2022-10-21T18:23:48.136Z,60.09
2022-10-21T18:26:35.186Z,60.18
2022-10-21T18:29:03.118Z,59.31
2022-10-21T18:31:31.948Z,60.69
2022-10-21T18:33:59.385Z,60.18
2022-10-21T18:36:26.270Z,60.45
2022-10-21T18:38:53.357Z,60.62
2022-10-21T18:41:21.238Z,60.67
2022-10-21T18:43:49.592Z,60.64
2022-10-21T18:46:16.240Z,60.72
2022-10-21T18:48:42.966Z,61.57
2022-10-21T18:51:10.549Z,61.08
2022-10-21T18:53:37.624Z,61.26
2022-10-21T18:56:05.806Z,60.89
2022-10-21T18:58:32.693Z,60.61
2022-10-21T19:00:59.563Z,61.23
2022-10-21T19:03:26.431Z,61.40
2022-10-21T19:05:53.099Z,60.95
2022-10-21T19:08:20.562Z,62.00
2022-10-21T19:10:47.406Z,62.36
2022-10-21T19:13:14.138Z,61.98
2022-10-21T19:15:41.533Z,62.02
2022-10-21T19:18:11.658Z,62.13
2022-10-21T19:20:39.141Z,62.24
2022-10-21T19:23:05.826Z,62.02
2022-10-21T19:25:32.715Z,61.57
2022-10-21T19:27:59.379Z,61.79
2022-10-21T19:30:26.264Z,61.94
2022-10-21T19:32:52.913Z,61.85
2022-10-21T19:35:19.613Z,62.54
2022-10-21T19:37:46.933Z,62.31
2022-10-21T19:40:13.619Z,61.49
2022-10-21T19:42:41.724Z,62.42
2022-10-21T19:45:10.636Z,62.46
2022-10-21T19:47:37.993Z,62.49
2022-10-21T19:50:05.105Z,62.11
2022-10-21T19:52:31.898Z,61.76
2022-10-21T19:54:58.516Z,62.29
2022-10-21T19:57:25.150Z,61.99
2022-10-21T19:59:51.744Z,62.55
2022-10-21T20:02:18.431Z,61.61
2022-10-21T20:04:45.105Z,62.68
2022-10-21T20:07:11.803Z,62.40
2022-10-21T20:09:39.003Z,62.00
2022-10-21T20:12:05.805Z,61.98
2022-10-21T20:14:32.479Z,62.08
2022-10-21T20:16:59.069Z,61.90
2022-10-21T20:19:25.716Z,62.62
2022-10-21T20:21:52.328Z,62.62
2022-10-21T20:24:19.102Z,62.36
2022-10-21T20:26:49.173Z,62.76
2022-10-21T20:29:15.904Z,62.61
2022-10-21T20:31:42.537Z,63.05
2022-10-21T20:34:12.400Z,62.87
2022-10-21T20:36:39.160Z,63.20
2022-10-21T20:39:05.833Z,63.99
2022-10-21T20:41:34.691Z,63.83
2022-10-21T20:44:01.991Z,63.22
2022-10-21T20:46:29.637Z,62.63
2022-10-21T20:48:56.438Z,63.69
2022-10-21T20:51:25.121Z,63.42
2022-10-21T20:53:54.779Z,63.42
2022-10-21T20:56:21.559Z,63.37
2022-10-21T20:58:48.324Z,64.00
2022-10-21T21:01:19.848Z,63.50
2022-10-21T21:03:49.326Z,63.56
2022-10-21T21:06:16.001Z,63.35
2022-10-21T21:08:48.929Z,63.28
2022-10-21T21:11:25.200Z,63.17
2022-10-21T21:13:51.855Z,63.31
2022-10-21T21:16:20.205Z,62.72
2022-10-21T21:18:57.085Z,62.84
2022-10-21T21:21:26.214Z,62.82
2022-10-21T21:23:53.150Z,62.85
2022-10-21T21:26:21.619Z,62.99
2022-10-21T21:28:48.318Z,62.74
2022-10-21T21:31:15.504Z,62.36
2022-10-21T21:33:47.885Z,62.88
2022-10-21T21:36:15.316Z,61.95
2022-10-21T21:38:42.060Z,62.09
2022-10-21T21:41:10.652Z,62.45
2022-10-21T21:43:37.557Z,62.21
2022-10-21T21:46:04.537Z,62.26
2022-10-21T21:48:31.670Z,62.70
2022-10-21T21:51:02.344Z,62.98
2022-10-21T21:53:29.066Z,63.51
2022-10-21T21:55:59.712Z,63.08
2022-10-21T21:58:28.821Z,63.09
2022-10-21T22:00:55.413Z,63.20
2022-10-21T22:03:22.557Z,63.09
2022-10-21T22:05:50.261Z,63.35
2022-10-21T22:08:16.965Z,63.23
2022-10-21T22:10:43.625Z,63.48
2022-10-21T22:13:12.731Z,63.75
2022-10-21T22:15:54.662Z,63.21
2022-10-21T22:18:21.503Z,64.01
2022-10-21T22:20:49.321Z,64.16
2022-10-21T22:23:16.585Z,63.95
2022-10-21T22:25:43.155Z,63.77
2022-10-21T22:28:09.735Z,63.60
2022-10-21T22:30:36.322Z,63.52
2022-10-21T22:33:02.916Z,63.15
2022-10-21T22:35:29.651Z,64.14
2022-10-21T22:37:56.230Z,64.69
2022-10-21T22:40:22.863Z,64.66
2022-10-21T22:42:49.660Z,64.31
2022-10-21T22:45:16.271Z,64.53
2022-10-21T22:47:43.267Z,64.80
2022-10-21T22:50:10.007Z,64.76
2022-10-21T22:52:36.559Z,64.34
2022-10-21T22:55:03.361Z,64.44
2022-10-21T22:57:30.027Z,65.00
2022-10-21T22:59:56.600Z,64.97
2022-10-21T23:02:23.185Z,65.08
2022-10-21T23:04:49.838Z,65.05
2022-10-21T23:07:16.399Z,65.46
2022-10-21T23:09:43.000Z,65.80
2022-10-21T23:12:09.642Z,65.26
2022-10-21T23:14:36.203Z,65.68
2022-10-21T23:17:02.795Z,65.32
2022-10-21T23:19:29.428Z,65.67
2022-10-21T23:21:56.024Z,65.82
2022-10-21T23:24:22.652Z,65.48
2022-10-21T23:26:49.245Z,65.75
2022-10-21T23:29:15.867Z,65.98
2022-10-21T23:31:42.444Z,65.48
2022-10-21T23:34:09.505Z,65.35
2022-10-21T23:36:36.342Z,65.84
2022-10-21T23:39:03.292Z,65.40
2022-10-21T23:41:30.077Z,65.45
2022-10-21T23:43:56.653Z,65.65
2022-10-21T23:46:23.365Z,65.14
2022-10-21T23:48:50.014Z,64.86
2022-10-21T23:51:16.613Z,65.16
2022-10-21T23:53:43.196Z,65.14
2022-10-21T23:56:09.801Z,65.27
2022-10-21T23:58:36.402Z,65.79
